Time;durP1;ratioP1;P1;durP2;ratioP2;P2;SDS_P1;SDS_P2;PMS_P1;PMS_P2;Temp;Humidity;BMP_temperature;BMP_pressure;BME280_temperature;BME280_humidity;BME280_pressure;Samples;Min_cycle;Max_cycle;Signal;HPM_P1;HPM_P2
2021/07/15 00:00:48;;;;;;;24.70;16.13;;;;;15.50;100254.00;;;;5026188;28;20413;-71
2021/07/15 00:03:23;;;;;;;26.13;16.15;;;;;15.40;100245.00;;;;5026333;28;20034;-72
2021/07/15 00:05:52;;;;;;;22.77;14.98;;;;;15.40;100233.00;;;;5026625;28;20035;-70
2021/07/15 00:08:21;;;;;;;27.40;16.25;;;;;15.40;100248.00;;;;5026855;28;20052;-71
2021/07/15 00:11:00;;;;;;;27.13;16.48;;;;;15.30;100257.00;;;;5026593;28;20068;-72
2021/07/15 00:13:28;;;;;;;26.85;16.38;;;;;15.30;100264.00;;;;5025430;28;20116;-71
2021/07/15 00:15:58;;;;;;;22.80;16.70;;;;;15.30;100249.00;;;;5026716;28;20063;-71
2021/07/15 00:18:34;;;;;;;23.67;16.30;;;;;15.30;100250.00;;;;5026686;28;20562;-71
2021/07/15 00:21:08;;;;;;;24.65;16.00;;;;;15.30;100255.00;;;;5026424;28;20474;-70
2021/07/15 00:23:35;;;;;;;26.98;16.45;;;;;15.40;100273.00;;;;5025985;28;20056;-69
2021/07/15 00:26:04;;;;;;;28.90;17.40;;;;;15.40;100266.00;;;;5026525;28;20894;-71
2021/07/15 00:28:31;;;;;;;24.95;16.70;;;;;15.40;100281.00;;;;5025956;28;20041;-70
2021/07/15 00:30:58;;;;;;;32.30;18.27;;;;;15.50;100285.00;;;;5026263;28;20029;-72
2021/07/15 00:33:25;;;;;;;20.27;16.15;;;;;15.40;100284.00;;;;5026481;28;20160;-71
2021/07/15 00:35:51;;;;;;;26.38;16.35;;;;;15.40;100291.00;;;;5026286;28;20033;-70
2021/07/15 00:38:18;;;;;;;25.65;16.05;;;;;15.40;100282.00;;;;5026662;28;20038;-69
2021/07/15 00:40:44;;;;;;;25.42;16.63;;;;;15.40;100262.00;;;;5025223;28;20400;-72
2021/07/15 00:43:11;;;;;;;24.27;16.05;;;;;15.40;100272.00;;;;5025684;28;20025;-70
2021/07/15 00:45:38;;;;;;;22.92;15.38;;;;;15.30;100285.00;;;;5026774;28;20025;-72
2021/07/15 00:48:05;;;;;;;23.73;16.23;;;;;15.30;100269.00;;;;5025895;28;20030;-70
2021/07/15 00:50:32;;;;;;;27.80;17.00;;;;;15.30;100278.00;;;;5025961;28;20029;-71
2021/07/15 00:53:02;;;;;;;30.13;16.63;;;;;15.30;100282.00;;;;5025547;28;20163;-71
2021/07/15 00:55:47;;;;;;;27.77;15.93;;;;;15.30;100272.00;;;;5025897;28;20032;-71
2021/07/15 00:58:16;;;;;;;29.35;16.15;;;;;15.30;100275.00;;;;5025592;28;20037;-70
2021/07/15 01:00:48;;;;;;;21.40;15.40;;;;;15.20;100263.00;;;;5025619;28;20038;-68
2021/07/15 01:03:17;;;;;;;23.30;16.45;;;;;15.20;100281.00;;;;5025440;28;20041;-71
2021/07/15 01:05:46;;;;;;;23.15;15.27;;;;;15.20;100274.00;;;;5025686;28;20034;-72
2021/07/15 01:08:14;;;;;;;25.35;17.23;;;;;15.10;100284.00;;;;5026075;28;20045;-72
2021/07/15 01:10:45;;;;;;;24.30;16.95;;;;;15.10;100284.00;;;;5028808;28;20033;-72
2021/07/15 01:13:15;;;;;;;24.88;16.80;;;;;15.10;100294.00;;;;5029292;28;20053;-71
2021/07/15 01:15:49;;;;;;;27.38;17.08;;;;;15.10;100319.00;;;;5028914;28;20037;-71
2021/07/15 01:18:23;;;;;;;21.15;18.13;;;;;15.30;100323.00;;;;5028457;28;20044;-70
2021/07/15 01:21:25;;;;;;;22.10;17.20;;;;;15.50;100331.00;;;;5029249;28;20040;-72
2021/07/15 01:24:09;;;;;;;23.45;14.65;;;;;15.40;100332.00;;;;5022121;28;20053;-70
2021/07/15 01:26:57;;;;;;;20.85;16.30;;;;;15.30;100322.00;;;;5029533;28;20504;-72
2021/07/15 01:29:48;;;;;;;21.45;16.20;;;;;15.30;100317.00;;;;5029246;28;20062;-70
2021/07/15 01:32:17;;;;;;;25.30;16.45;;;;;15.40;100333.00;;;;5029293;28;20064;-71
2021/07/15 01:34:45;;;;;;;23.77;15.57;;;;;15.40;100321.00;;;;5029236;28;20059;-72
2021/07/15 01:37:13;;;;;;;20.27;16.10;;;;;15.40;100341.00;;;;5030076;28;20551;-71
2021/07/15 01:39:43;;;;;;;22.08;15.63;;;;;15.40;100340.00;;;;5029614;28;20029;-72
2021/07/15 01:42:14;;;;;;;29.83;15.70;;;;;15.40;100346.00;;;;5029581;28;20485;-72
2021/07/15 01:44:41;;;;;;;25.17;17.50;;;;;15.40;100361.00;;;;5029073;28;20056;-70
2021/07/15 01:47:08;;;;;;;23.58;16.40;;;;;15.40;100373.00;;;;5028758;28;20446;-72
2021/07/15 01:49:35;;;;;;;29.25;16.83;;;;;15.40;100382.00;;;;5028041;28;20045;-72
2021/07/15 01:52:03;;;;;;;24.38;18.38;;;;;15.50;100373.00;;;;5029006;28;20049;-70
2021/07/15 01:54:30;;;;;;;26.15;16.88;;;;;15.50;100382.00;;;;5028838;28;20025;-72
2021/07/15 01:56:58;;;;;;;34.47;17.40;;;;;15.50;100402.00;;;;5029040;28;20033;-72
2021/07/15 01:59:30;;;;;;;29.85;17.02;;;;;15.50;100398.00;;;;5028365;28;20060;-69
2021/07/15 02:01:59;;;;;;;29.50;16.02;;;;;15.40;100388.00;;;;5028945;28;20045;-72
2021/07/15 02:04:29;;;;;;;19.02;14.43;;;;;15.30;100379.00;;;;5028784;28;20033;-69
2021/07/15 02:06:57;;;;;;;27.48;15.65;;;;;15.30;100361.00;;;;5027264;28;20029;-72
2021/07/15 02:09:25;;;;;;;23.88;15.55;;;;;15.20;100340.00;;;;5028208;28;20033;-72
2021/07/15 02:11:54;;;;;;;19.58;15.73;;;;;15.20;100348.00;;;;5028568;28;20037;-69
2021/07/15 02:14:23;;;;;;;25.00;16.60;;;;;15.20;100349.00;;;;5028926;28;20057;-70
2021/07/15 02:16:57;;;;;;;22.15;15.35;;;;;15.10;100363.00;;;;5028775;28;20123;-72
2021/07/15 02:19:25;;;;;;;25.23;16.13;;;;;15.20;100373.00;;;;5028214;28;20436;-71
2021/07/15 02:21:53;;;;;;;23.08;15.85;;;;;15.20;100371.00;;;;5028261;28;20049;-70
2021/07/15 02:24:23;;;;;;;27.00;17.50;;;;;15.20;100373.00;;;;5028478;28;20033;-70
2021/07/15 02:26:52;;;;;;;24.23;17.42;;;;;15.20;100382.00;;;;5028755;28;20024;-69
2021/07/15 02:29:19;;;;;;;28.67;16.83;;;;;15.20;100382.00;;;;5028838;28;20025;-71
2021/07/15 02:32:04;;;;;;;26.42;17.30;;;;;15.10;100387.00;;;;5028263;28;20277;-71
2021/07/15 02:34:37;;;;;;;22.40;16.20;;;;;15.10;100384.00;;;;5028100;28;20053;-68
2021/07/15 02:37:05;;;;;;;28.38;15.68;;;;;15.00;100407.00;;;;5027998;28;20026;-71
2021/07/15 02:39:32;;;;;;;23.65;16.08;;;;;15.00;100397.00;;;;5028121;28;20033;-69
2021/07/15 02:41:59;;;;;;;28.17;17.73;;;;;15.00;100392.00;;;;5027828;28;20022;-72
2021/07/15 02:44:26;;;;;;;24.35;17.17;;;;;15.00;100404.00;;;;5027631;28;20033;-72
2021/07/15 02:46:53;;;;;;;22.02;17.08;;;;;15.00;100416.00;;;;5027810;28;20480;-69
2021/07/15 02:49:20;;;;;;;27.15;17.92;;;;;15.00;100407.00;;;;5028190;28;20033;-71
2021/07/15 02:51:46;;;;;;;24.60;17.27;;;;;14.90;100414.00;;;;5027608;28;20025;-69
2021/07/15 02:54:15;;;;;;;25.33;17.83;;;;;14.90;100407.00;;;;5028310;28;20060;-71
2021/07/15 02:57:05;;;;;;;24.35;17.73;;;;;14.90;100407.00;;;;5028842;28;20047;-70
2021/07/15 02:59:58;;;;;;;25.15;17.00;;;;;14.90;100393.00;;;;5027642;28;20033;-69
2021/07/15 03:02:44;;;;;;;25.58;18.60;;;;;14.90;100412.00;;;;5027944;28;20464;-72
2021/07/15 03:05:17;;;;;;;31.73;19.00;;;;;14.80;100421.00;;;;5027672;28;20056;-71
2021/07/15 03:07:47;;;;;;;21.98;17.27;;;;;14.80;100413.00;;;;5028117;28;20481;-71
2021/07/15 03:10:17;;;;;;;21.93;17.93;;;;;14.80;100400.00;;;;5027818;28;20060;-72
2021/07/15 03:12:44;;;;;;;33.45;20.52;;;;;14.80;100426.00;;;;5027653;28;21159;-71
2021/07/15 03:15:12;;;;;;;31.92;19.67;;;;;14.80;100451.00;;;;5027486;28;20037;-73
2021/07/15 03:17:46;;;;;;;32.53;20.35;;;;;14.90;100437.00;;;;5027003;28;20522;-71
2021/07/15 03:20:16;;;;;;;28.67;22.77;;;;;15.00;100462.00;;;;5027967;28;20088;-70
2021/07/15 03:22:47;;;;;;;41.97;25.63;;;;;15.00;100466.00;;;;5027283;28;20465;-72
2021/07/15 03:25:18;;;;;;;29.65;25.00;;;;;14.90;100477.00;;;;5027442;28;20397;-71
2021/07/15 03:27:48;;;;;;;37.97;26.52;;;;;14.90;100487.00;;;;5026979;28;20162;-70
2021/07/15 03:30:15;;;;;;;41.45;26.35;;;;;14.80;100505.00;;;;5027313;28;20041;-71
2021/07/15 03:32:45;;;;;;;42.05;29.45;;;;;14.80;100501.00;;;;5027292;28;20038;-70
2021/07/15 03:35:13;;;;;;;41.20;28.92;;;;;14.70;100517.00;;;;5027073;28;20034;-69
2021/07/15 03:37:42;;;;;;;42.70;31.92;;;;;14.70;100527.00;;;;5026284;28;20036;-71
2021/07/15 03:40:16;;;;;;;46.65;33.85;;;;;14.70;100540.00;;;;5027455;28;20512;-70
2021/07/15 03:42:46;;;;;;;51.10;35.15;;;;;14.70;100544.00;;;;5027128;28;20061;-71
2021/07/15 03:45:18;;;;;;;46.90;34.70;;;;;14.70;100523.00;;;;5026770;28;20028;-69
2021/07/15 03:47:51;;;;;;;59.85;39.00;;;;;14.70;100516.00;;;;5027207;28;20029;-70
2021/07/15 03:50:23;;;;;;;57.00;39.25;;;;;14.70;100527.00;;;;5027041;28;20528;-69
2021/07/15 03:52:52;;;;;;;53.42;38.03;;;;;14.70;100515.00;;;;5027008;28;20080;-70
2021/07/15 03:55:23;;;;;;;57.78;36.00;;;;;14.70;100497.00;;;;5026429;28;20397;-70
2021/07/15 03:57:51;;;;;;;60.25;36.75;;;;;14.70;100476.00;;;;5026765;28;20044;-69
2021/07/15 04:00:22;;;;;;;77.28;42.70;;;;;14.70;100480.00;;;;5026483;28;20037;-68
2021/07/15 04:02:52;;;;;;;69.72;40.28;;;;;14.60;100442.00;;;;5026958;28;20034;-69
2021/07/15 04:05:20;;;;;;;78.47;42.35;;;;;14.60;100445.00;;;;5027029;28;20044;-69
2021/07/15 04:07:49;;;;;;;55.55;37.47;;;;;14.50;100444.00;;;;5026649;28;20057;-68
2021/07/15 04:10:17;;;;;;;59.28;40.05;;;;;14.50;100476.00;;;;5026890;28;20484;-70
2021/07/15 04:12:47;;;;;;;59.47;37.33;;;;;14.40;100495.00;;;;5026867;28;20518;-70
2021/07/15 04:15:19;;;;;;;66.50;40.90;;;;;14.40;100505.00;;;;5025991;28;20137;-70
2021/07/15 04:17:58;;;;;;;67.70;41.80;;;;;14.40;100500.00;;;;5026888;28;20037;-71
2021/07/15 04:20:26;;;;;;;66.85;41.17;;;;;14.40;100512.00;;;;5026434;28;20044;-71
2021/07/15 04:22:59;;;;;;;69.32;42.45;;;;;14.50;100529.00;;;;5026302;28;20504;-70
2021/07/15 04:25:28;;;;;;;69.95;40.72;;;;;14.50;100509.00;;;;5025934;28;20513;-69
2021/07/15 04:27:59;;;;;;;87.03;44.40;;;;;14.50;100514.00;;;;5026435;28;20121;-71
2021/07/15 04:30:26;;;;;;;79.13;42.55;;;;;14.50;100498.00;;;;5026433;28;20037;-71
2021/07/15 04:33:03;;;;;;;90.53;40.97;;;;;14.50;100485.00;;;;5026518;28;20033;-69
2021/07/15 04:35:32;;;;;;;93.53;45.67;;;;;14.50;100494.00;;;;5026066;28;20103;-71
2021/07/15 04:38:00;;;;;;;80.85;46.35;;;;;14.50;100500.00;;;;5026364;28;20835;-72
2021/07/15 04:40:28;;;;;;;86.70;53.05;;;;;14.60;100513.00;;;;5026755;28;20029;-69
2021/07/15 04:43:16;;;;;;;83.43;50.45;;;;;14.60;100503.00;;;;5026764;28;20037;-71
2021/07/15 04:45:44;;;;;;;86.18;49.17;;;;;14.60;100536.00;;;;5028393;28;20100;-69
2021/07/15 04:48:12;;;;;;;84.70;47.75;;;;;14.60;100539.00;;;;5030201;28;20512;-70
2021/07/15 04:50:39;;;;;;;91.28;48.88;;;;;14.70;100548.00;;;;5030079;28;20025;-70
2021/07/15 04:53:13;;;;;;;102.55;52.40;;;;;14.70;100545.00;;;;5030282;28;20033;-68
2021/07/15 04:55:41;;;;;;;98.15;52.88;;;;;14.70;100527.00;;;;5030753;28;20120;-69
2021/07/15 04:58:09;;;;;;;110.63;53.05;;;;;14.70;100532.00;;;;5030339;28;20035;-71
2021/07/15 05:00:37;;;;;;;85.53;49.95;;;;;14.70;100540.00;;;;5029834;28;20029;-69
2021/07/15 05:03:23;;;;;;;96.78;52.97;;;;;14.70;100547.00;;;;5030454;28;20473;-71
2021/07/15 05:05:49;;;;;;;99.75;47.45;;;;;14.70;100510.00;;;;5030033;28;20217;-68
2021/07/15 05:08:16;;;;;;;136.65;48.60;;;;;14.70;100489.00;;;;5030436;28;20025;-70
2021/07/15 05:10:43;;;;;;;120.82;49.90;;;;;14.70;100501.00;;;;5029735;28;20037;-67
2021/07/15 05:13:10;;;;;;;82.65;49.40;;;;;14.70;100524.00;;;;5029711;28;20041;-71
2021/07/15 05:15:36;;;;;;;87.13;51.33;;;;;14.70;100508.00;;;;5029842;28;20029;-69
2021/07/15 05:18:03;;;;;;;94.03;49.00;;;;;14.70;100486.00;;;;5029601;28;20108;-69
2021/07/15 05:20:30;;;;;;;88.57;50.00;;;;;14.70;100475.00;;;;5029398;28;20039;-70
2021/07/15 05:22:57;;;;;;;96.15;54.30;;;;;14.70;100453.00;;;;5029067;28;20057;-70
2021/07/15 05:25:23;;;;;;;73.00;48.25;;;;;14.70;100455.00;;;;5029768;28;20033;-69
2021/07/15 05:27:50;;;;;;;86.13;50.85;;;;;14.70;100457.00;;;;5027705;28;20030;-71
2021/07/15 05:30:17;;;;;;;78.95;48.65;;;;;14.60;100476.00;;;;5029841;28;20079;-68
2021/07/15 05:32:44;;;;;;;122.28;50.92;;;;;14.60;100474.00;;;;5029339;28;20029;-69
2021/07/15 05:35:11;;;;;;;85.85;50.53;;;;;14.60;100441.00;;;;5029447;28;20029;-71
2021/07/15 05:37:40;;;;;;;103.53;50.60;;;;;14.60;100401.00;;;;5029570;28;20502;-72
2021/07/15 05:40:07;;;;;;;80.90;49.38;;;;;14.60;100374.00;;;;5029261;28;20068;-71
2021/07/15 05:42:34;;;;;;;85.53;49.58;;;;;14.50;100409.00;;;;5029012;28;20108;-70
2021/07/15 05:45:00;;;;;;;100.15;50.63;;;;;14.50;100431.00;;;;5029627;28;20480;-72
2021/07/15 05:47:27;;;;;;;92.35;49.00;;;;;14.50;100418.00;;;;5029407;28;20067;-71
2021/07/15 05:49:54;;;;;;;84.00;49.53;;;;;14.50;100423.00;;;;5029350;28;20033;-68
2021/07/15 05:52:20;;;;;;;86.78;52.38;;;;;14.50;100452.00;;;;5029732;28;20412;-68
2021/07/15 05:54:47;;;;;;;82.53;45.00;;;;;14.50;100420.00;;;;5029114;28;20323;-72
2021/07/15 05:57:13;;;;;;;67.03;40.83;;;;;14.50;100359.00;;;;5029018;28;20025;-69
2021/07/15 05:59:40;;;;;;;89.97;48.88;;;;;14.50;100320.00;;;;5028766;28;20484;-70
2021/07/15 06:02:08;;;;;;;77.90;48.22;;;;;14.50;100362.00;;;;5028536;28;20029;-72
2021/07/15 06:04:34;;;;;;;90.38;52.88;;;;;14.50;100356.00;;;;5029117;28;20743;-70
2021/07/15 06:07:01;;;;;;;90.10;51.05;;;;;14.50;100301.00;;;;5028946;28;20048;-69
2021/07/15 06:09:27;;;;;;;82.53;54.25;;;;;14.50;100252.00;;;;5028855;28;20404;-71
2021/07/15 06:11:54;;;;;;;85.72;53.10;;;;;14.50;100263.00;;;;5028848;28;20452;-72
2021/07/15 06:14:21;;;;;;;91.60;54.90;;;;;14.50;100261.00;;;;5029442;28;20080;-69
2021/07/15 06:16:47;;;;;;;85.65;53.33;;;;;14.50;100269.00;;;;5028678;28;20033;-71
2021/07/15 06:19:14;;;;;;;87.78;53.83;;;;;14.40;100246.00;;;;5028738;28;20044;-73
2021/07/15 06:21:40;;;;;;;81.00;48.15;;;;;14.40;100232.00;;;;5029156;28;20041;-71
2021/07/15 06:24:09;;;;;;;68.90;47.22;;;;;14.40;100253.00;;;;5028436;28;20048;-69
2021/07/15 06:26:35;;;;;;;62.35;43.47;;;;;14.40;100235.00;;;;5028330;28;20033;-68
2021/07/15 06:29:03;;;;;;;72.88;45.42;;;;;14.40;100260.00;;;;5028257;28;20594;-70
2021/07/15 06:31:32;;;;;;;85.90;51.42;;;;;14.40;100251.00;;;;5028452;28;20079;-72
2021/07/15 06:33:59;;;;;;;73.60;50.65;;;;;14.40;100249.00;;;;5028211;28;20501;-72
2021/07/15 06:36:29;;;;;;;87.95;54.00;;;;;14.50;100196.00;;;;5028403;28;20469;-69
2021/07/15 06:38:56;;;;;;;78.80;51.25;;;;;14.50;100191.00;;;;5028256;28;20026;-72
2021/07/15 06:41:22;;;;;;;83.63;52.97;;;;;14.50;100187.00;;;;5028091;28;20029;-70
2021/07/15 06:43:49;;;;;;;90.30;53.65;;;;;14.40;100184.00;;;;5028169;28;20088;-73
2021/07/15 06:46:16;;;;;;;82.10;52.53;;;;;14.40;100158.00;;;;5028320;28;20021;-73
2021/07/15 06:48:43;;;;;;;69.13;46.00;;;;;14.40;100107.00;;;;5028437;28;20045;-71
2021/07/15 06:51:09;;;;;;;75.95;50.08;;;;;14.30;100081.00;;;;5026868;28;20524;-71
2021/07/15 06:53:36;;;;;;;76.63;50.15;;;;;14.30;100070.00;;;;5027964;28;20349;-70
2021/07/15 06:56:03;;;;;;;63.50;43.70;;;;;14.30;100037.00;;;;5027784;28;20029;-70
2021/07/15 06:58:29;;;;;;;76.30;49.60;;;;;14.30;100024.00;;;;5027802;28;20022;-71
2021/07/15 07:00:56;;;;;;;83.45;50.60;;;;;14.40;100039.00;;;;5027331;28;20040;-73
2021/07/15 07:03:24;;;;;;;69.95;47.40;;;;;14.40;100041.00;;;;5027764;28;20551;-72
2021/07/15 07:05:53;;;;;;;78.45;47.58;;;;;14.40;100053.00;;;;5027302;28;20132;-70
2021/07/15 07:08:20;;;;;;;69.28;45.22;;;;;14.40;100037.00;;;;5027089;28;20036;-71
2021/07/15 07:10:47;;;;;;;63.08;44.92;;;;;14.40;100054.00;;;;5027954;28;20044;-72
2021/07/15 07:13:13;;;;;;;68.97;45.40;;;;;14.50;100041.00;;;;5027886;28;20030;-71
2021/07/15 07:15:40;;;;;;;61.15;43.35;;;;;14.50;100029.00;;;;5028134;28;20044;-72
2021/07/15 07:18:07;;;;;;;74.72;49.20;;;;;14.50;100034.00;;;;5027399;28;20114;-70
2021/07/15 07:20:34;;;;;;;65.90;45.08;;;;;14.50;100024.00;;;;5027372;28;21125;-71
2021/07/15 07:23:00;;;;;;;69.45;47.88;;;;;14.50;100008.00;;;;5027273;28;20055;-71
2021/07/15 07:25:27;;;;;;;75.38;49.10;;;;;14.60;100000.00;;;;5027808;28;20030;-69
2021/07/15 07:31:15;;;;;;;64.50;45.55;;;;;14.70;99988.00;;;;5027341;28;20051;-71
2021/07/15 07:33:42;;;;;;;71.25;49.25;;;;;14.80;99950.00;;;;5027056;28;20017;-71
2021/07/15 07:39:31;;;;;;;64.35;45.83;;;;;14.80;99962.00;;;;5027144;28;20048;-70
2021/07/15 07:41:58;;;;;;;63.75;44.67;;;;;14.80;99940.00;;;;5027154;28;20025;-71
2021/07/15 07:44:25;;;;;;;62.70;45.03;;;;;14.80;99947.00;;;;5026922;28;20033;-69
2021/07/15 07:46:51;;;;;;;66.78;44.83;;;;;14.70;99948.00;;;;5027496;28;20052;-69
2021/07/15 07:49:18;;;;;;;69.88;45.25;;;;;14.70;99939.00;;;;5026774;28;20025;-73
2021/07/15 07:51:44;;;;;;;78.32;48.53;;;;;14.70;99947.00;;;;5026920;28;20275;-70
2021/07/15 07:54:11;;;;;;;71.82;46.45;;;;;14.80;99963.00;;;;5026638;28;20034;-70
2021/07/15 07:56:38;;;;;;;71.47;45.53;;;;;14.70;99984.00;;;;5026433;28;20484;-69
2021/07/15 07:59:04;;;;;;;73.53;48.55;;;;;14.70;99968.00;;;;5026802;28;20029;-71
2021/07/15 08:01:31;;;;;;;77.25;48.13;;;;;14.70;99970.00;;;;5026970;28;20519;-70
2021/07/15 08:03:57;;;;;;;77.10;47.53;;;;;14.70;99968.00;;;;5026574;28;20440;-72
2021/07/15 08:06:24;;;;;;;72.13;44.50;;;;;14.70;99952.00;;;;5026445;28;20037;-69
2021/07/15 08:08:51;;;;;;;72.00;48.85;;;;;14.70;99939.00;;;;5026984;28;20413;-68
2021/07/15 08:11:20;;;;;;;75.10;48.72;;;;;14.70;99962.00;;;;5026379;28;20488;-72
2021/07/15 08:13:46;;;;;;;76.13;49.92;;;;;14.70;99995.00;;;;5026574;28;20459;-71
2021/07/15 08:16:13;;;;;;;75.93;49.58;;;;;14.70;99981.00;;;;5025235;28;20385;-72
2021/07/15 08:18:39;;;;;;;84.53;47.08;;;;;14.70;99989.00;;;;5026733;28;20079;-71
2021/07/15 08:21:06;;;;;;;74.88;46.30;;;;;14.60;99968.00;;;;5026681;28;20481;-72
2021/07/15 08:23:33;;;;;;;84.60;48.22;;;;;14.60;99970.00;;;;5026496;28;20049;-72
2021/07/15 08:25:59;;;;;;;80.88;46.63;;;;;14.60;99968.00;;;;5026318;28;20025;-74
2021/07/15 08:28:26;;;;;;;77.75;43.38;;;;;14.60;99989.00;;;;5026453;28;20021;-68
2021/07/15 08:30:52;;;;;;;69.45;44.78;;;;;14.60;99995.00;;;;5026196;28;20042;-69
2021/07/15 08:33:19;;;;;;;74.88;48.28;;;;;14.60;100009.00;;;;5026514;28;20030;-71
2021/07/15 08:35:45;;;;;;;84.47;47.30;;;;;14.50;100004.00;;;;5026195;28;20060;-70
2021/07/15 08:38:12;;;;;;;77.38;49.47;;;;;14.50;99996.00;;;;5026715;28;20025;-70
2021/07/15 08:40:40;;;;;;;83.80;48.45;;;;;14.50;100007.00;;;;5026658;28;20040;-73
2021/07/15 08:43:07;;;;;;;100.35;49.15;;;;;14.50;100007.00;;;;5025995;28;20033;-69
2021/07/15 08:45:35;;;;;;;76.72;43.00;;;;;14.30;100009.00;;;;5026577;28;20021;-69
2021/07/15 08:48:04;;;;;;;80.75;44.67;;;;;14.40;100038.00;;;;5025959;28;20040;-71
2021/07/15 08:50:31;;;;;;;74.38;44.80;;;;;14.40;100040.00;;;;5026081;28;20032;-70
2021/07/15 08:52:59;;;;;;;78.30;49.15;;;;;14.40;100051.00;;;;5026344;28;20033;-69
2021/07/15 08:58:14;;;;;;;112.07;50.10;;;;;14.50;100091.00;;;;5026561;28;20045;-69
2021/07/15 09:00:42;;;;;;;86.20;53.15;;;;;14.60;100103.00;;;;5025190;28;20533;-73
2021/07/15 09:03:09;;;;;;;95.45;56.08;;;;;14.70;100108.00;;;;5025648;28;20044;-70
2021/07/15 09:05:37;;;;;;;99.10;56.50;;;;;14.80;100101.00;;;;5026132;28;20037;-71
2021/07/15 09:08:04;;;;;;;99.50;53.85;;;;;14.80;100109.00;;;;5025798;28;20032;-71
2021/07/15 09:10:31;;;;;;;100.32;55.15;;;;;14.80;100114.00;;;;5026494;28;20065;-70
2021/07/15 09:12:59;;;;;;;114.75;54.80;;;;;14.80;100113.00;;;;5025614;28;20029;-70
2021/07/15 09:15:26;;;;;;;78.50;50.10;;;;;14.80;100106.00;;;;5025514;28;20038;-71
2021/07/15 09:17:53;;;;;;;85.88;47.92;;;;;14.80;100105.00;;;;5024630;28;20022;-71
2021/07/15 09:20:24;;;;;;;80.78;46.42;;;;;14.80;100095.00;;;;5025677;28;20029;-72
2021/07/15 09:23:00;;;;;;;88.55;46.65;;;;;14.70;100095.00;;;;5025793;28;20053;-68
2021/07/15 09:25:46;;;;;;;70.63;42.83;;;;;14.70;100100.00;;;;5025141;28;20029;-71
2021/07/15 09:28:14;;;;;;;76.38;44.13;;;;;14.60;100094.00;;;;5018255;28;20124;-71
2021/07/15 09:30:43;;;;;;;67.75;40.95;;;;;14.60;100101.00;;;;5026475;28;20041;-71
2021/07/15 09:33:14;;;;;;;101.13;48.10;;;;;14.60;100129.00;;;;5029261;28;20124;-71
2021/07/15 09:35:45;;;;;;;86.93;48.33;;;;;14.70;100112.00;;;;5029467;28;20492;-68
2021/07/15 09:38:15;;;;;;;96.97;51.22;;;;;14.70;100128.00;;;;5030220;28;20032;-71
2021/07/15 09:40:57;;;;;;;103.20;48.40;;;;;14.70;100147.00;;;;5029394;28;20041;-72
2021/07/15 09:43:31;;;;;;;96.00;48.17;;;;;14.70;100166.00;;;;5029113;28;20064;-72
2021/07/15 09:46:14;;;;;;;82.25;47.40;;;;;14.80;100169.00;;;;5029110;28;20497;-70
2021/07/15 09:48:43;;;;;;;87.82;52.47;;;;;14.90;100183.00;;;;5029047;28;20435;-71
2021/07/15 09:51:14;;;;;;;109.05;63.10;;;;;15.10;100174.00;;;;5029070;28;20040;-68
2021/07/15 09:53:42;;;;;;;94.38;59.40;;;;;15.20;100167.00;;;;5029075;28;20390;-72
2021/07/15 09:56:16;;;;;;;85.28;53.45;;;;;15.30;100150.00;;;;5028774;28;20037;-72
2021/07/15 09:58:49;;;;;;;76.75;49.88;;;;;15.30;100150.00;;;;5028432;28;20645;-71
2021/07/15 10:01:20;;;;;;;72.47;49.47;;;;;15.30;100149.00;;;;5028458;28;20578;-71
2021/07/15 10:03:48;;;;;;;61.95;47.15;;;;;15.40;100169.00;;;;5029500;28;20044;-69
2021/07/15 10:06:16;;;;;;;68.20;46.70;;;;;15.50;100185.00;;;;5027805;28;20033;-69
2021/07/15 10:08:44;;;;;;;57.60;42.90;;;;;15.50;100197.00;;;;5028869;28;20109;-70
2021/07/15 10:11:28;;;;;;;54.95;41.03;;;;;15.60;100217.00;;;;5028262;28;20099;-69
2021/07/15 10:14:01;;;;;;;47.83;38.10;;;;;15.60;100227.00;;;;5028695;28;20034;-71
2021/07/15 10:16:30;;;;;;;46.40;35.63;;;;;15.60;100233.00;;;;5028413;28;20370;-70
2021/07/15 10:18:57;;;;;;;46.40;35.67;;;;;15.50;100237.00;;;;5028538;28;20029;-71
2021/07/15 10:21:26;;;;;;;43.97;34.05;;;;;15.60;100246.00;;;;5028215;28;20152;-72
2021/07/15 10:23:53;;;;;;;44.15;33.67;;;;;15.60;100256.00;;;;5028457;28;20025;-73
2021/07/15 10:26:20;;;;;;;48.13;37.60;;;;;15.60;100246.00;;;;5028687;28;20045;-71
2021/07/15 10:28:49;;;;;;;51.20;39.63;;;;;15.40;100271.00;;;;5028299;28;20049;-71
2021/07/15 10:31:17;;;;;;;54.83;43.63;;;;;15.30;100279.00;;;;5028899;28;20057;-70
2021/07/15 10:33:44;;;;;;;60.10;45.58;;;;;15.20;100277.00;;;;5027692;28;20029;-70
2021/07/15 10:36:11;;;;;;;66.53;47.97;;;;;15.20;100293.00;;;;5025905;28;20455;-69
2021/07/15 10:38:41;;;;;;;62.95;47.35;;;;;15.20;100298.00;;;;5028143;28;20096;-69
2021/07/15 10:41:08;;;;;;;65.65;48.47;;;;;15.20;100301.00;;;;5028247;28;20029;-72
2021/07/15 10:43:36;;;;;;;61.72;46.55;;;;;15.30;100293.00;;;;5028205;28;20059;-69
2021/07/15 10:46:04;;;;;;;61.80;46.92;;;;;15.30;100283.00;;;;5028114;28;20029;-70
2021/07/15 10:48:33;;;;;;;69.40;47.72;;;;;15.30;100287.00;;;;5027202;28;20025;-72
2021/07/15 10:51:02;;;;;;;69.82;49.13;;;;;15.30;100294.00;;;;5027970;28;20740;-69
2021/07/15 10:53:34;;;;;;;63.28;47.15;;;;;15.30;100293.00;;;;5028435;28;20099;-71
2021/07/15 10:56:02;;;;;;;64.35;45.97;;;;;15.30;100288.00;;;;5027960;28;20028;-69
2021/07/15 10:58:50;;;;;;;74.30;46.88;;;;;15.20;100292.00;;;;5028605;28;20029;-71
2021/07/15 11:01:32;;;;;;;69.00;48.10;;;;;15.20;100289.00;;;;5027507;28;20061;-71
2021/07/15 11:04:30;;;;;;;66.15;48.22;;;;;15.30;100297.00;;;;5027625;28;20028;-72
2021/07/15 11:07:01;;;;;;;64.85;45.88;;;;;15.30;100279.00;;;;5013557;28;20587;-71
2021/07/15 11:09:30;;;;;;;68.18;47.20;;;;;15.30;100288.00;;;;5027468;28;20133;-72
2021/07/15 11:12:03;;;;;;;59.53;44.38;;;;;15.30;100313.00;;;;5027582;28;20029;-71
2021/07/15 11:14:35;;;;;;;57.65;44.90;;;;;15.30;100313.00;;;;5027446;28;20025;-74
2021/07/15 11:17:21;;;;;;;68.03;45.00;;;;;15.30;100307.00;;;;5027652;28;20040;-73
2021/07/15 11:20:08;;;;;;;63.20;44.83;;;;;15.30;100319.00;;;;5027496;28;20034;-70
2021/07/15 11:22:45;;;;;;;64.78;45.80;;;;;15.30;100310.00;;;;5027167;28;20057;-71
2021/07/15 11:25:50;;;;;;;67.18;44.85;;;;;15.30;100307.00;;;;5027398;28;20041;-69
2021/07/15 11:28:22;;;;;;;57.03;44.35;;;;;15.30;100319.00;;;;5026693;28;20444;-73
2021/07/15 11:30:50;;;;;;;63.63;45.00;;;;;15.30;100314.00;;;;5027296;28;20036;-70
2021/07/15 11:33:22;;;;;;;63.72;45.30;;;;;15.40;100315.00;;;;5027238;28;20033;-69
2021/07/15 11:36:30;;;;;;;68.78;44.95;;;;;15.40;100333.00;;;;5026866;28;20379;-73
2021/07/15 11:38:58;;;;;;;60.72;43.10;;;;;15.50;100334.00;;;;4984877;28;20442;-72
2021/07/15 11:41:45;;;;;;;58.10;41.92;;;;;15.50;100333.00;;;;5020890;28;20053;-73
2021/07/15 11:44:13;;;;;;;53.63;40.17;;;;;15.60;100338.00;;;;5026723;28;20047;-72
2021/07/15 11:46:41;;;;;;;55.85;38.72;;;;;15.60;100342.00;;;;5026993;28;20112;-72
2021/07/15 11:49:12;;;;;;;52.90;39.30;;;;;15.60;100342.00;;;;5026533;28;20037;-72
2021/07/15 11:51:39;;;;;;;49.13;37.88;;;;;15.60;100339.00;;;;5027122;28;20029;-70
2021/07/15 11:54:43;;;;;;;49.60;38.13;;;;;15.70;100350.00;;;;5026550;28;20083;-76
2021/07/15 11:57:12;;;;;;;51.05;36.10;;;;;15.70;100340.00;;;;5026166;28;20455;-71
2021/07/15 12:00:05;;;;;;;39.72;33.28;;;;;15.80;100345.00;;;;5026793;28;20029;-71
2021/07/15 12:02:37;;;;;;;48.78;34.35;;;;;15.90;100350.00;;;;5025487;28;20041;-72
2021/07/15 12:05:35;;;;;;;40.55;32.28;;;;;15.90;100341.00;;;;5026335;28;20107;-69
2021/07/15 12:08:06;;;;;;;42.63;32.67;;;;;15.90;100335.00;;;;5026575;28;20388;-72
2021/07/15 12:10:46;;;;;;;45.15;36.22;;;;;16.00;100344.00;;;;5026503;28;20056;-73
2021/07/15 12:13:18;;;;;;;43.10;34.25;;;;;15.90;100346.00;;;;5025955;28;20568;-72
2021/07/15 12:15:47;;;;;;;53.35;38.70;;;;;16.00;100349.00;;;;5026285;28;20048;-70